sensor_id;sensor_type;location;lat;lon;timestamp;temperature;humidity
48515;DHT22;34309;47.260;2.796;2023-04-24T00:01:32;20.40;28.40
48515;DHT22;34309;47.260;2.796;2023-04-24T00:04:06;20.40;28.40
48515;DHT22;34309;47.260;2.796;2023-04-24T00:06:44;20.40;28.40
48515;DHT22;34309;47.260;2.796;2023-04-24T00:09:21;20.40;28.40
48515;DHT22;34309;47.260;2.796;2023-04-24T00:11:55;20.40;28.40
48515;DHT22;34309;47.260;2.796;2023-04-24T00:14:29;20.40;28.40
48515;DHT22;34309;47.260;2.796;2023-04-24T00:17:06;20.40;28.40
48515;DHT22;34309;47.260;2.796;2023-04-24T00:19:40;20.40;28.40
48515;DHT22;34309;47.260;2.796;2023-04-24T00:22:15;20.40;28.50
48515;DHT22;34309;47.260;2.796;2023-04-24T00:24:49;20.40;28.40
48515;DHT22;34309;47.260;2.796;2023-04-24T00:27:23;20.40;28.40
48515;DHT22;34309;47.260;2.796;2023-04-24T00:29:57;20.40;28.50
48515;DHT22;34309;47.260;2.796;2023-04-24T00:32:30;20.30;28.40
48515;DHT22;34309;47.260;2.796;2023-04-24T00:35:05;20.30;28.40
48515;DHT22;34309;47.260;2.796;2023-04-24T00:37:40;20.30;28.40
48515;DHT22;34309;47.260;2.796;2023-04-24T00:40:14;20.40;28.50
48515;DHT22;34309;47.260;2.796;2023-04-24T00:42:48;20.30;28.50
48515;DHT22;34309;47.260;2.796;2023-04-24T00:45:23;20.30;28.30
48515;DHT22;34309;47.260;2.796;2023-04-24T00:47:57;20.30;28.40
48515;DHT22;34309;47.260;2.796;2023-04-24T00:50:31;20.30;28.40
48515;DHT22;34309;47.260;2.796;2023-04-24T00:53:07;20.30;28.30
48515;DHT22;34309;47.260;2.796;2023-04-24T00:55:40;20.30;28.30
48515;DHT22;34309;47.260;2.796;2023-04-24T00:58:14;20.30;28.20
48515;DHT22;34309;47.260;2.796;2023-04-24T01:00:49;20.30;28.30
48515;DHT22;34309;47.260;2.796;2023-04-24T01:03:28;20.30;28.40
48515;DHT22;34309;47.260;2.796;2023-04-24T01:06:02;20.30;28.40
48515;DHT22;34309;47.260;2.796;2023-04-24T01:08:39;20.20;28.30
48515;DHT22;34309;47.260;2.796;2023-04-24T01:11:13;20.20;28.20
48515;DHT22;34309;47.260;2.796;2023-04-24T01:13:47;20.30;28.40
48515;DHT22;34309;47.260;2.796;2023-04-24T01:16:21;20.20;28.30
48515;DHT22;34309;47.260;2.796;2023-04-24T01:18:55;20.20;28.30
48515;DHT22;34309;47.260;2.796;2023-04-24T01:21:29;20.20;28.40
48515;DHT22;34309;47.260;2.796;2023-04-24T01:24:06;20.20;28.30
48515;DHT22;34309;47.260;2.796;2023-04-24T01:26:39;20.20;28.20
48515;DHT22;34309;47.260;2.796;2023-04-24T01:29:13;20.20;28.30
48515;DHT22;34309;47.260;2.796;2023-04-24T01:31:47;20.20;28.20
48515;DHT22;34309;47.260;2.796;2023-04-24T01:34:21;20.20;28.20
48515;DHT22;34309;47.260;2.796;2023-04-24T01:36:55;20.20;28.20
48515;DHT22;34309;47.260;2.796;2023-04-24T01:39:31;20.20;28.30
48515;DHT22;34309;47.260;2.796;2023-04-24T01:42:06;20.20;28.20
48515;DHT22;34309;47.260;2.796;2023-04-24T01:44:41;20.20;28.20
48515;DHT22;34309;47.260;2.796;2023-04-24T01:47:15;20.20;28.20
48515;DHT22;34309;47.260;2.796;2023-04-24T01:49:50;20.20;28.10
48515;DHT22;34309;47.260;2.796;2023-04-24T01:52:24;20.20;28.20
48515;DHT22;34309;47.260;2.796;2023-04-24T01:55:01;20.20;28.20
48515;DHT22;34309;47.260;2.796;2023-04-24T01:57:36;20.20;28.20
48515;DHT22;34309;47.260;2.796;2023-04-24T02:00:10;20.20;28.20
48515;DHT22;34309;47.260;2.796;2023-04-24T02:02:45;20.10;28.20
48515;DHT22;34309;47.260;2.796;2023-04-24T02:05:19;20.10;28.10
48515;DHT22;34309;47.260;2.796;2023-04-24T02:07:52;20.10;28.00
48515;DHT22;34309;47.260;2.796;2023-04-24T02:10:28;20.10;28.00
48515;DHT22;34309;47.260;2.796;2023-04-24T02:13:02;20.10;28.20
48515;DHT22;34309;47.260;2.796;2023-04-24T02:15:36;20.10;28.00
48515;DHT22;34309;47.260;2.796;2023-04-24T02:18:10;20.10;28.10
48515;DHT22;34309;47.260;2.796;2023-04-24T02:20:44;20.10;28.10
48515;DHT22;34309;47.260;2.796;2023-04-24T02:23:18;20.10;27.80
48515;DHT22;34309;47.260;2.796;2023-04-24T02:25:54;20.10;28.00
48515;DHT22;34309;47.260;2.796;2023-04-24T02:28:28;20.10;28.00
48515;DHT22;34309;47.260;2.796;2023-04-24T02:31:01;20.10;27.90
48515;DHT22;34309;47.260;2.796;2023-04-24T02:33:35;20.10;28.00
48515;DHT22;34309;47.260;2.796;2023-04-24T02:36:09;20.10;28.00
48515;DHT22;34309;47.260;2.796;2023-04-24T02:38:43;20.10;28.00
48515;DHT22;34309;47.260;2.796;2023-04-24T02:41:19;20.10;28.00
48515;DHT22;34309;47.260;2.796;2023-04-24T02:43:53;20.00;27.90
48515;DHT22;34309;47.260;2.796;2023-04-24T02:46:27;20.00;27.90
48515;DHT22;34309;47.260;2.796;2023-04-24T02:49:01;20.00;27.90
48515;DHT22;34309;47.260;2.796;2023-04-24T02:51:35;20.00;27.80
48515;DHT22;34309;47.260;2.796;2023-04-24T02:54:13;20.00;27.80
48515;DHT22;34309;47.260;2.796;2023-04-24T02:56:48;20.00;27.90
48515;DHT22;34309;47.260;2.796;2023-04-24T02:59:21;20.00;27.90
48515;DHT22;34309;47.260;2.796;2023-04-24T03:01:55;20.00;27.90
48515;DHT22;34309;47.260;2.796;2023-04-24T03:04:29;20.00;27.90
48515;DHT22;34309;47.260;2.796;2023-04-24T03:07:03;20.00;27.90
48515;DHT22;34309;47.260;2.796;2023-04-24T03:09:36;20.00;27.90
48515;DHT22;34309;47.260;2.796;2023-04-24T03:12:11;20.00;28.00
48515;DHT22;34309;47.260;2.796;2023-04-24T03:14:45;20.00;28.00
48515;DHT22;34309;47.260;2.796;2023-04-24T03:17:19;20.00;27.90
48515;DHT22;34309;47.260;2.796;2023-04-24T03:19:53;20.00;27.90
48515;DHT22;34309;47.260;2.796;2023-04-24T03:22:27;20.00;27.80
48515;DHT22;34309;47.260;2.796;2023-04-24T03:25:01;20.00;27.80
48515;DHT22;34309;47.260;2.796;2023-04-24T03:27:36;19.90;27.80
48515;DHT22;34309;47.260;2.796;2023-04-24T03:30:11;19.90;27.80
48515;DHT22;34309;47.260;2.796;2023-04-24T03:32:45;19.90;27.80
48515;DHT22;34309;47.260;2.796;2023-04-24T03:35:18;19.90;27.90
48515;DHT22;34309;47.260;2.796;2023-04-24T03:37:53;19.90;27.90
48515;DHT22;34309;47.260;2.796;2023-04-24T03:40:27;19.90;28.50
48515;DHT22;34309;47.260;2.796;2023-04-24T03:43:03;19.90;27.90
48515;DHT22;34309;47.260;2.796;2023-04-24T03:45:36;19.90;27.80
48515;DHT22;34309;47.260;2.796;2023-04-24T03:48:10;20.00;27.90
48515;DHT22;34309;47.260;2.796;2023-04-24T03:50:44;19.90;27.80
48515;DHT22;34309;47.260;2.796;2023-04-24T03:53:18;19.90;27.80
48515;DHT22;34309;47.260;2.796;2023-04-24T03:55:53;19.90;27.80
48515;DHT22;34309;47.260;2.796;2023-04-24T03:58:28;19.90;28.00
48515;DHT22;34309;47.260;2.796;2023-04-24T04:01:02;19.90;27.70
48515;DHT22;34309;47.260;2.796;2023-04-24T04:03:35;19.90;27.80
48515;DHT22;34309;47.260;2.796;2023-04-24T04:06:09;19.90;27.80
48515;DHT22;34309;47.260;2.796;2023-04-24T04:08:44;19.90;27.80
48515;DHT22;34309;47.260;2.796;2023-04-24T04:11:18;19.90;27.80
48515;DHT22;34309;47.260;2.796;2023-04-24T04:13:53;19.90;27.80
48515;DHT22;34309;47.260;2.796;2023-04-24T04:16:27;19.90;27.90
48515;DHT22;34309;47.260;2.796;2023-04-24T04:19:01;19.90;27.90
48515;DHT22;34309;47.260;2.796;2023-04-24T04:21:35;20.00;28.00
48515;DHT22;34309;47.260;2.796;2023-04-24T04:24:08;20.00;27.80
48515;DHT22;34309;47.260;2.796;2023-04-24T04:26:37;20.10;27.70
48515;DHT22;34309;47.260;2.796;2023-04-24T04:29:14;20.10;27.60
48515;DHT22;34309;47.260;2.796;2023-04-24T04:31:48;20.20;27.60
48515;DHT22;34309;47.260;2.796;2023-04-24T04:34:21;20.20;27.60
48515;DHT22;34309;47.260;2.796;2023-04-24T04:36:55;20.30;27.70
48515;DHT22;34309;47.260;2.796;2023-04-24T04:39:31;20.30;27.60
48515;DHT22;34309;47.260;2.796;2023-04-24T04:42:05;20.30;27.40
48515;DHT22;34309;47.260;2.796;2023-04-24T04:44:40;20.40;27.50
48515;DHT22;34309;47.260;2.796;2023-04-24T04:47:13;20.40;27.50
48515;DHT22;34309;47.260;2.796;2023-04-24T04:49:48;20.40;27.40
48515;DHT22;34309;47.260;2.796;2023-04-24T04:52:23;20.40;27.50
48515;DHT22;34309;47.260;2.796;2023-04-24T04:54:58;20.40;27.40
48515;DHT22;34309;47.260;2.796;2023-04-24T04:57:32;20.50;27.30
48515;DHT22;34309;47.260;2.796;2023-04-24T05:00:08;20.50;27.30
48515;DHT22;34309;47.260;2.796;2023-04-24T05:02:43;20.50;27.30
48515;DHT22;34309;47.260;2.796;2023-04-24T05:05:18;20.50;27.70
48515;DHT22;34309;47.260;2.796;2023-04-24T05:07:52;20.50;27.20
48515;DHT22;34309;47.260;2.796;2023-04-24T05:10:26;20.60;27.20
48515;DHT22;34309;47.260;2.796;2023-04-24T05:13:00;20.60;27.00
48515;DHT22;34309;47.260;2.796;2023-04-24T05:15:35;20.60;27.00
48515;DHT22;34309;47.260;2.796;2023-04-24T05:18:09;20.50;27.10
48515;DHT22;34309;47.260;2.796;2023-04-24T05:20:43;20.60;27.00
48515;DHT22;34309;47.260;2.796;2023-04-24T05:23:17;20.50;27.00
48515;DHT22;34309;47.260;2.796;2023-04-24T05:25:51;20.50;27.60
48515;DHT22;34309;47.260;2.796;2023-04-24T05:28:24;20.50;27.00
48515;DHT22;34309;47.260;2.796;2023-04-24T05:31:01;20.50;27.00
48515;DHT22;34309;47.260;2.796;2023-04-24T05:33:35;20.50;27.00
48515;DHT22;34309;47.260;2.796;2023-04-24T05:36:06;20.50;27.10
48515;DHT22;34309;47.260;2.796;2023-04-24T05:38:40;20.50;27.10
48515;DHT22;34309;47.260;2.796;2023-04-24T05:41:14;20.50;27.20
48515;DHT22;34309;47.260;2.796;2023-04-24T05:43:47;20.50;27.10
48515;DHT22;34309;47.260;2.796;2023-04-24T05:46:17;20.50;27.20
48515;DHT22;34309;47.260;2.796;2023-04-24T05:48:51;20.50;27.30
48515;DHT22;34309;47.260;2.796;2023-04-24T05:51:25;20.50;27.30
48515;DHT22;34309;47.260;2.796;2023-04-24T05:53:59;20.40;27.10
48515;DHT22;34309;47.260;2.796;2023-04-24T05:56:28;20.40;27.00
48515;DHT22;34309;47.260;2.796;2023-04-24T05:59:02;20.40;27.10
48515;DHT22;34309;47.260;2.796;2023-04-24T06:01:37;20.40;27.10
48515;DHT22;34309;47.260;2.796;2023-04-24T06:04:12;20.40;27.10
48515;DHT22;34309;47.260;2.796;2023-04-24T06:06:46;20.50;27.20
48515;DHT22;34309;47.260;2.796;2023-04-24T06:09:22;20.40;27.20
48515;DHT22;34309;47.260;2.796;2023-04-24T06:11:59;20.50;27.20
48515;DHT22;34309;47.260;2.796;2023-04-24T06:14:33;20.50;27.10
48515;DHT22;34309;47.260;2.796;2023-04-24T06:17:08;20.60;27.10
48515;DHT22;34309;47.260;2.796;2023-04-24T06:19:42;20.70;27.00
48515;DHT22;34309;47.260;2.796;2023-04-24T06:22:16;20.90;26.90
48515;DHT22;34309;47.260;2.796;2023-04-24T06:24:49;21.00;26.90
48515;DHT22;34309;47.260;2.796;2023-04-24T06:27:23;21.10;26.70
48515;DHT22;34309;47.260;2.796;2023-04-24T06:29:57;21.20;26.60
48515;DHT22;34309;47.260;2.796;2023-04-24T06:32:32;21.30;26.50
48515;DHT22;34309;47.260;2.796;2023-04-24T06:35:07;21.30;26.40
48515;DHT22;34309;47.260;2.796;2023-04-24T06:37:42;21.30;26.30
48515;DHT22;34309;47.260;2.796;2023-04-24T06:40:16;21.40;26.20
48515;DHT22;34309;47.260;2.796;2023-04-24T06:42:50;21.40;26.20
48515;DHT22;34309;47.260;2.796;2023-04-24T06:45:24;21.50;26.30
48515;DHT22;34309;47.260;2.796;2023-04-24T06:47:59;21.50;26.30
48515;DHT22;34309;47.260;2.796;2023-04-24T06:50:33;21.60;26.40
48515;DHT22;34309;47.260;2.796;2023-04-24T06:53:07;21.60;26.40
48515;DHT22;34309;47.260;2.796;2023-04-24T06:55:43;21.60;26.40
48515;DHT22;34309;47.260;2.796;2023-04-24T06:58:18;21.60;26.40
48515;DHT22;34309;47.260;2.796;2023-04-24T07:00:51;21.60;26.40
48515;DHT22;34309;47.260;2.796;2023-04-24T07:03:27;21.60;26.40
48515;DHT22;34309;47.260;2.796;2023-04-24T07:05:56;21.60;26.40
48515;DHT22;34309;47.260;2.796;2023-04-24T07:08:30;21.60;26.40
48515;DHT22;34309;47.260;2.796;2023-04-24T07:11:05;21.60;26.40
48515;DHT22;34309;47.260;2.796;2023-04-24T07:13:39;21.70;26.40
48515;DHT22;34309;47.260;2.796;2023-04-24T07:16:13;21.60;26.40
48515;DHT22;34309;47.260;2.796;2023-04-24T07:18:49;21.60;26.40
48515;DHT22;34309;47.260;2.796;2023-04-24T07:21:22;21.60;26.40
48515;DHT22;34309;47.260;2.796;2023-04-24T07:23:56;21.60;26.40
48515;DHT22;34309;47.260;2.796;2023-04-24T07:26:30;21.60;26.40
48515;DHT22;34309;47.260;2.796;2023-04-24T07:29:04;21.60;26.40
48515;DHT22;34309;47.260;2.796;2023-04-24T07:31:38;21.60;26.40
48515;DHT22;34309;47.260;2.796;2023-04-24T07:34:14;21.60;26.40
48515;DHT22;34309;47.260;2.796;2023-04-24T07:36:48;21.60;26.40
48515;DHT22;34309;47.260;2.796;2023-04-24T07:39:22;21.50;26.30
48515;DHT22;34309;47.260;2.796;2023-04-24T07:41:57;21.50;26.30
48515;DHT22;34309;47.260;2.796;2023-04-24T07:44:31;21.50;26.30
48515;DHT22;34309;47.260;2.796;2023-04-24T07:47:05;21.50;26.30
48515;DHT22;34309;47.260;2.796;2023-04-24T07:49:41;21.40;26.20
48515;DHT22;34309;47.260;2.796;2023-04-24T07:52:15;21.40;26.20
48515;DHT22;34309;47.260;2.796;2023-04-24T07:54:49;21.40;26.20
48515;DHT22;34309;47.260;2.796;2023-04-24T07:57:25;21.40;26.20
48515;DHT22;34309;47.260;2.796;2023-04-24T07:59:59;21.30;26.20
48515;DHT22;34309;47.260;2.796;2023-04-24T08:02:33;21.30;26.20
48515;DHT22;34309;47.260;2.796;2023-04-24T08:05:08;21.30;26.20
48515;DHT22;34309;47.260;2.796;2023-04-24T08:07:42;21.30;26.20
48515;DHT22;34309;47.260;2.796;2023-04-24T08:10:18;21.30;26.20
48515;DHT22;34309;47.260;2.796;2023-04-24T08:12:52;21.20;26.10
48515;DHT22;34309;47.260;2.796;2023-04-24T08:15:27;21.20;26.10
48515;DHT22;34309;47.260;2.796;2023-04-24T08:18:01;21.20;26.10
48515;DHT22;34309;47.260;2.796;2023-04-24T08:20:36;21.20;26.20
48515;DHT22;34309;47.260;2.796;2023-04-24T08:23:10;21.10;26.30
48515;DHT22;34309;47.260;2.796;2023-04-24T08:25:44;21.10;26.60
48515;DHT22;34309;47.260;2.796;2023-04-24T08:28:18;21.10;26.40
48515;DHT22;34309;47.260;2.796;2023-04-24T08:30:52;21.10;26.50
48515;DHT22;34309;47.260;2.796;2023-04-24T08:33:26;21.10;26.50
48515;DHT22;34309;47.260;2.796;2023-04-24T08:36:07;21.00;26.50
48515;DHT22;34309;47.260;2.796;2023-04-24T08:38:42;21.00;26.60
48515;DHT22;34309;47.260;2.796;2023-04-24T08:41:19;21.00;26.80
48515;DHT22;34309;47.260;2.796;2023-04-24T08:43:53;21.00;26.60
48515;DHT22;34309;47.260;2.796;2023-04-24T08:46:31;20.90;26.70
48515;DHT22;34309;47.260;2.796;2023-04-24T08:49:05;20.90;26.70
48515;DHT22;34309;47.260;2.796;2023-04-24T08:51:40;20.90;26.80
48515;DHT22;34309;47.260;2.796;2023-04-24T08:54:16;20.90;26.80
48515;DHT22;34309;47.260;2.796;2023-04-24T08:56:50;20.90;26.80
48515;DHT22;34309;47.260;2.796;2023-04-24T08:59:27;20.90;26.90
48515;DHT22;34309;47.260;2.796;2023-04-24T09:02:03;20.80;26.80
48515;DHT22;34309;47.260;2.796;2023-04-24T09:04:37;20.80;26.80
48515;DHT22;34309;47.260;2.796;2023-04-24T09:07:14;20.80;26.90
48515;DHT22;34309;47.260;2.796;2023-04-24T09:09:50;20.80;26.90
48515;DHT22;34309;47.260;2.796;2023-04-24T09:12:25;20.80;27.00
48515;DHT22;34309;47.260;2.796;2023-04-24T09:14:59;20.80;27.20
48515;DHT22;34309;47.260;2.796;2023-04-24T09:17:33;20.70;27.00
48515;DHT22;34309;47.260;2.796;2023-04-24T09:20:08;20.70;27.00
48515;DHT22;34309;47.260;2.796;2023-04-24T09:22:45;20.70;27.10
48515;DHT22;34309;47.260;2.796;2023-04-24T09:25:19;20.70;27.10
48515;DHT22;34309;47.260;2.796;2023-04-24T09:27:54;20.70;27.00
48515;DHT22;34309;47.260;2.796;2023-04-24T09:30:28;20.70;27.10
48515;DHT22;34309;47.260;2.796;2023-04-24T09:33:12;20.70;27.00
48515;DHT22;34309;47.260;2.796;2023-04-24T09:35:49;20.70;27.00
48515;DHT22;34309;47.260;2.796;2023-04-24T09:38:33;20.60;26.90
48515;DHT22;34309;47.260;2.796;2023-04-24T09:41:08;20.60;26.80
48515;DHT22;34309;47.260;2.796;2023-04-24T09:43:43;20.60;27.00
48515;DHT22;34309;47.260;2.796;2023-04-24T09:46:18;20.60;27.20
48515;DHT22;34309;47.260;2.796;2023-04-24T09:48:53;20.60;27.20
48515;DHT22;34309;47.260;2.796;2023-04-24T09:51:35;20.50;27.10
48515;DHT22;34309;47.260;2.796;2023-04-24T09:54:18;20.50;27.20
48515;DHT22;34309;47.260;2.796;2023-04-24T09:56:54;20.50;27.20
48515;DHT22;34309;47.260;2.796;2023-04-24T09:59:29;20.50;27.20
48515;DHT22;34309;47.260;2.796;2023-04-24T10:02:17;20.50;27.30
48515;DHT22;34309;47.260;2.796;2023-04-24T10:04:55;20.50;27.30
48515;DHT22;34309;47.260;2.796;2023-04-24T10:07:29;20.50;27.30
48515;DHT22;34309;47.260;2.796;2023-04-24T10:10:08;20.40;27.30
48515;DHT22;34309;47.260;2.796;2023-04-24T10:12:43;20.40;27.20
48515;DHT22;34309;47.260;2.796;2023-04-24T10:15:18;20.40;27.20
48515;DHT22;34309;47.260;2.796;2023-04-24T10:17:53;20.40;27.30
48515;DHT22;34309;47.260;2.796;2023-04-24T10:20:28;20.40;27.20
48515;DHT22;34309;47.260;2.796;2023-04-24T10:23:03;20.40;27.40
48515;DHT22;34309;47.260;2.796;2023-04-24T10:25:39;20.40;27.30
48515;DHT22;34309;47.260;2.796;2023-04-24T10:28:13;20.40;27.30
48515;DHT22;34309;47.260;2.796;2023-04-24T10:30:48;20.40;27.20
48515;DHT22;34309;47.260;2.796;2023-04-24T10:33:22;20.40;27.30
48515;DHT22;34309;47.260;2.796;2023-04-24T10:35:58;20.40;27.30
48515;DHT22;34309;47.260;2.796;2023-04-24T10:38:32;20.30;27.30
48515;DHT22;34309;47.260;2.796;2023-04-24T10:41:10;20.30;27.30
48515;DHT22;34309;47.260;2.796;2023-04-24T10:43:48;20.40;27.50
48515;DHT22;34309;47.260;2.796;2023-04-24T10:46:28;20.30;27.50
48515;DHT22;34309;47.260;2.796;2023-04-24T10:49:04;20.30;27.40
48515;DHT22;34309;47.260;2.796;2023-04-24T10:51:46;20.30;27.40
48515;DHT22;34309;47.260;2.796;2023-04-24T10:54:24;20.30;27.50
48515;DHT22;34309;47.260;2.796;2023-04-24T10:57:28;20.30;27.60
48515;DHT22;34309;47.260;2.796;2023-04-24T11:00:18;20.30;27.50
48515;DHT22;34309;47.260;2.796;2023-04-24T11:02:53;20.30;27.50
48515;DHT22;34309;47.260;2.796;2023-04-24T11:05:58;20.20;27.50
48515;DHT22;34309;47.260;2.796;2023-04-24T11:08:38;20.30;27.50
48515;DHT22;34309;47.260;2.796;2023-04-24T11:11:15;20.20;27.50
48515;DHT22;34309;47.260;2.796;2023-04-24T11:14:07;20.20;27.60
48515;DHT22;34309;47.260;2.796;2023-04-24T11:16:47;20.20;27.50
48515;DHT22;34309;47.260;2.796;2023-04-24T11:19:25;20.20;27.60
48515;DHT22;34309;47.260;2.796;2023-04-24T11:22:02;20.20;27.50
48515;DHT22;34309;47.260;2.796;2023-04-24T11:24:39;20.20;27.50
48515;DHT22;34309;47.260;2.796;2023-04-24T11:27:15;20.20;27.50
48515;DHT22;34309;47.260;2.796;2023-04-24T11:29:59;20.20;27.50
48515;DHT22;34309;47.260;2.796;2023-04-24T11:32:36;20.20;27.40
48515;DHT22;34309;47.260;2.796;2023-04-24T11:35:14;20.20;27.20
48515;DHT22;34309;47.260;2.796;2023-04-24T11:37:49;20.20;27.20
48515;DHT22;34309;47.260;2.796;2023-04-24T11:40:23;20.20;27.20
48515;DHT22;34309;47.260;2.796;2023-04-24T11:43:00;20.10;27.20
48515;DHT22;34309;47.260;2.796;2023-04-24T11:45:35;20.10;27.10
48515;DHT22;34309;47.260;2.796;2023-04-24T11:48:09;20.10;27.00
48515;DHT22;34309;47.260;2.796;2023-04-24T11:50:46;20.10;27.00
48515;DHT22;34309;47.260;2.796;2023-04-24T11:53:20;20.10;27.20
48515;DHT22;34309;47.260;2.796;2023-04-24T11:55:54;20.10;27.10
48515;DHT22;34309;47.260;2.796;2023-04-24T11:58:28;20.10;27.10
48515;DHT22;34309;47.260;2.796;2023-04-24T12:01:04;20.10;27.00
48515;DHT22;34309;47.260;2.796;2023-04-24T12:03:38;20.10;27.10
48515;DHT22;34309;47.260;2.796;2023-04-24T12:06:12;20.10;27.00
48515;DHT22;34309;47.260;2.796;2023-04-24T12:08:46;20.10;27.00
48515;DHT22;34309;47.260;2.796;2023-04-24T12:11:21;20.10;27.00
48515;DHT22;34309;47.260;2.796;2023-04-24T12:13:55;20.10;27.10
48515;DHT22;34309;47.260;2.796;2023-04-24T12:16:30;20.10;27.00
48515;DHT22;34309;47.260;2.796;2023-04-24T12:19:06;20.10;27.00
48515;DHT22;34309;47.260;2.796;2023-04-24T12:21:42;20.10;26.90
48515;DHT22;34309;47.260;2.796;2023-04-24T12:24:16;20.10;26.90
48515;DHT22;34309;47.260;2.796;2023-04-24T12:26:50;20.10;26.90
48515;DHT22;34309;47.260;2.796;2023-04-24T12:29:25;20.10;26.80
48515;DHT22;34309;47.260;2.796;2023-04-24T12:32:00;20.00;26.70
48515;DHT22;34309;47.260;2.796;2023-04-24T12:34:34;20.00;26.80
48515;DHT22;34309;47.260;2.796;2023-04-24T12:37:10;20.00;26.80
48515;DHT22;34309;47.260;2.796;2023-04-24T12:39:58;20.00;26.80
48515;DHT22;34309;47.260;2.796;2023-04-24T12:42:33;20.00;26.80
48515;DHT22;34309;47.260;2.796;2023-04-24T12:45:07;20.00;26.70
48515;DHT22;34309;47.260;2.796;2023-04-24T12:47:44;20.00;26.80
48515;DHT22;34309;47.260;2.796;2023-04-24T12:50:19;20.00;26.80
48515;DHT22;34309;47.260;2.796;2023-04-24T12:52:53;20.00;26.80
48515;DHT22;34309;47.260;2.796;2023-04-24T12:55:27;20.00;26.70
48515;DHT22;34309;47.260;2.796;2023-04-24T12:58:01;20.00;26.80
48515;DHT22;34309;47.260;2.796;2023-04-24T13:00:36;20.00;26.70
48515;DHT22;34309;47.260;2.796;2023-04-24T13:03:11;20.00;26.90
48515;DHT22;34309;47.260;2.796;2023-04-24T13:05:45;20.00;26.80
48515;DHT22;34309;47.260;2.796;2023-04-24T13:08:19;19.90;26.60
48515;DHT22;34309;47.260;2.796;2023-04-24T13:10:53;19.90;26.50
48515;DHT22;34309;47.260;2.796;2023-04-24T13:13:27;19.90;26.80
48515;DHT22;34309;47.260;2.796;2023-04-24T13:15:56;20.00;26.60
48515;DHT22;34309;47.260;2.796;2023-04-24T13:18:31;19.90;26.60
48515;DHT22;34309;47.260;2.796;2023-04-24T13:21:05;19.90;26.60
48515;DHT22;34309;47.260;2.796;2023-04-24T13:23:39;20.00;26.60
48515;DHT22;34309;47.260;2.796;2023-04-24T13:26:14;20.00;26.60
48515;DHT22;34309;47.260;2.796;2023-04-24T13:28:48;19.90;26.50
48515;DHT22;34309;47.260;2.796;2023-04-24T13:31:21;19.90;26.50
48515;DHT22;34309;47.260;2.796;2023-04-24T13:33:57;19.90;26.50
48515;DHT22;34309;47.260;2.796;2023-04-24T13:36:31;19.90;26.40
48515;DHT22;34309;47.260;2.796;2023-04-24T13:39:00;19.90;26.40
48515;DHT22;34309;47.260;2.796;2023-04-24T13:41:36;19.90;26.40
48515;DHT22;34309;47.260;2.796;2023-04-24T13:44:10;19.90;26.40
48515;DHT22;34309;47.260;2.796;2023-04-24T13:46:44;19.90;26.40
48515;DHT22;34309;47.260;2.796;2023-04-24T13:49:21;19.90;26.30
48515;DHT22;34309;47.260;2.796;2023-04-24T13:51:57;19.90;26.10
48515;DHT22;34309;47.260;2.796;2023-04-24T13:54:31;19.90;26.20
48515;DHT22;34309;47.260;2.796;2023-04-24T13:57:07;19.90;26.00
48515;DHT22;34309;47.260;2.796;2023-04-24T13:59:41;19.90;26.00
48515;DHT22;34309;47.260;2.796;2023-04-24T14:02:15;19.90;26.10
48515;DHT22;34309;47.260;2.796;2023-04-24T14:04:50;19.90;26.20
48515;DHT22;34309;47.260;2.796;2023-04-24T14:07:24;19.80;25.80
48515;DHT22;34309;47.260;2.796;2023-04-24T14:09:58;19.80;25.90
48515;DHT22;34309;47.260;2.796;2023-04-24T14:12:32;19.90;26.00
48515;DHT22;34309;47.260;2.796;2023-04-24T14:15:07;19.90;26.00
48515;DHT22;34309;47.260;2.796;2023-04-24T14:17:42;19.80;25.90
48515;DHT22;34309;47.260;2.796;2023-04-24T14:20:18;19.80;25.90
48515;DHT22;34309;47.260;2.796;2023-04-24T14:22:52;19.80;25.80
48515;DHT22;34309;47.260;2.796;2023-04-24T14:25:27;19.80;25.90
48515;DHT22;34309;47.260;2.796;2023-04-24T14:28:01;19.80;25.80
48515;DHT22;34309;47.260;2.796;2023-04-24T14:30:35;19.80;25.70
48515;DHT22;34309;47.260;2.796;2023-04-24T14:33:09;19.80;25.80
48515;DHT22;34309;47.260;2.796;2023-04-24T14:35:46;19.80;25.70
48515;DHT22;34309;47.260;2.796;2023-04-24T14:38:21;19.80;25.70
48515;DHT22;34309;47.260;2.796;2023-04-24T14:40:55;19.80;25.70
48515;DHT22;34309;47.260;2.796;2023-04-24T14:43:29;19.80;25.70
48515;DHT22;34309;47.260;2.796;2023-04-24T14:46:05;19.80;25.60
48515;DHT22;34309;47.260;2.796;2023-04-24T14:48:38;19.80;25.70
48515;DHT22;34309;47.260;2.796;2023-04-24T14:51:09;19.80;25.90
48515;DHT22;34309;47.260;2.796;2023-04-24T14:53:43;19.80;25.80
48515;DHT22;34309;47.260;2.796;2023-04-24T14:56:19;19.80;25.70
48515;DHT22;34309;47.260;2.796;2023-04-24T14:58:53;19.70;25.60
48515;DHT22;34309;47.260;2.796;2023-04-24T15:01:27;19.80;25.70
48515;DHT22;34309;47.260;2.796;2023-04-24T15:04:01;19.80;25.70
48515;DHT22;34309;47.260;2.796;2023-04-24T15:06:36;19.80;25.60
48515;DHT22;34309;47.260;2.796;2023-04-24T15:09:10;19.70;25.60
48515;DHT22;34309;47.260;2.796;2023-04-24T15:11:46;19.70;25.50
48515;DHT22;34309;47.260;2.796;2023-04-24T15:14:16;19.70;25.50
48515;DHT22;34309;47.260;2.796;2023-04-24T15:16:50;19.70;25.50
48515;DHT22;34309;47.260;2.796;2023-04-24T15:19:23;19.70;25.50
48515;DHT22;34309;47.260;2.796;2023-04-24T15:21:59;19.70;25.30
48515;DHT22;34309;47.260;2.796;2023-04-24T15:24:33;19.70;25.80
48515;DHT22;34309;47.260;2.796;2023-04-24T15:27:09;19.70;25.40
48515;DHT22;34309;47.260;2.796;2023-04-24T15:29:43;19.70;25.20
48515;DHT22;34309;47.260;2.796;2023-04-24T15:32:17;19.70;25.40
48515;DHT22;34309;47.260;2.796;2023-04-24T15:34:51;19.70;25.40
48515;DHT22;34309;47.260;2.796;2023-04-24T15:37:27;19.70;25.80
48515;DHT22;34309;47.260;2.796;2023-04-24T15:40:01;19.80;25.40
48515;DHT22;34309;47.260;2.796;2023-04-24T15:42:36;19.70;25.20
48515;DHT22;34309;47.260;2.796;2023-04-24T15:45:11;19.70;25.10
48515;DHT22;34309;47.260;2.796;2023-04-24T15:47:45;19.70;25.10
48515;DHT22;34309;47.260;2.796;2023-04-24T15:50:19;19.70;25.10
48515;DHT22;34309;47.260;2.796;2023-04-24T15:52:55;19.70;25.10
48515;DHT22;34309;47.260;2.796;2023-04-24T15:55:29;19.70;25.10
48515;DHT22;34309;47.260;2.796;2023-04-24T15:58:04;19.70;25.10
48515;DHT22;34309;47.260;2.796;2023-04-24T16:00:37;19.70;25.10
48515;DHT22;34309;47.260;2.796;2023-04-24T16:03:12;19.70;25.10
48515;DHT22;34309;47.260;2.796;2023-04-24T16:05:46;19.70;25.10
48515;DHT22;34309;47.260;2.796;2023-04-24T16:08:22;19.70;25.10
48515;DHT22;34309;47.260;2.796;2023-04-24T16:10:56;19.70;25.10
48515;DHT22;34309;47.260;2.796;2023-04-24T16:13:30;19.70;25.10
48515;DHT22;34309;47.260;2.796;2023-04-24T16:16:05;19.70;25.10
48515;DHT22;34309;47.260;2.796;2023-04-24T16:18:39;19.70;25.10